Terminal Aerodrome Forecast
Issued by NWS Blacksburg, VA

Home | Current Version | Previous Version | Text Only | Print | Product List | Glossary On
Versions: 1 2 3 4 5 6 7 8 9 10 11 12 13 14 15 16 17 18 19 20 21 22 23 24 25 26 27 28 29 30 31 32 33 34 35 36 37 38 39 40 41 42
000
FTUS41 KRNK 201731
TAFBLF
TAF
KBLF 201731Z 2018/2118 25008G16KT P6SM SCT060 SCT100
     FM202100 22010KT P6SM SCT050 OVC080
      TEMPO 2021/2023 5SM -SHRA SCT035 OVC050
     FM210400 27005KT P6SM VCSH SCT007 BKN015
      TEMPO 2109/2112 3SM BR BKN007
     FM211500 29008G16KT P6SM VCSH BKN012=

USA.gov is the U.S. government's official web portal to all federal, state and local government web resources and services.